Terminal Aerodrome Forecast
Issued by NWS

Home | Current Version | Previous Version | Text Only | Print | Product List | Glossary On
Versions: 1 2 3 4 5 6 7 8 9 10 11 12 13 14 15 16 17
000
FTAK31 PANC 271731
TAFADQ
TAF
PADQ 271731Z 2718/2818 10011KT 4SM -RA BR SCT007 BKN015 OVC040
      TEMPO 2718/2722 OVC007
     FM272200 09010KT 6SM -RA BR SCT007 BKN015
     FM280300 09006KT 6SM BR VCSH SCT007 BKN020
     FM281200 08005KT 3SM BR SCT004 OVC007=

USA.gov is the U.S. government's official web portal to all federal, state and local government web resources and services.